Time;durP1;ratioP1;P1;durP2;ratioP2;P2;SDS_P1;SDS_P2;PMS_P1;PMS_P2;Temp;Humidity;BMP_temperature;BMP_pressure;BME280_temperature;BME280_humidity;BME280_pressure;Samples;Min_cycle;Max_cycle;Signal;HPM_P1;HPM_P2
2022/03/18 00:02:26;;;;;;;140.10;50.70;;;;;;;4.04;100.00;96839.84;5062922;28;20068;-75
2022/03/18 00:04:53;;;;;;;140.38;50.67;;;;;;;3.95;100.00;96841.81;5066201;28;20056;-75
2022/03/18 00:07:20;;;;;;;151.10;49.38;;;;;;;3.91;100.00;96840.63;5048559;28;20391;-75
2022/03/18 00:09:47;;;;;;;143.18;49.65;;;;;;;3.87;100.00;96845.41;5050983;28;20036;-75
2022/03/18 00:12:13;;;;;;;137.77;50.53;;;;;;;3.89;100.00;96843.41;5053931;28;20699;-76
2022/03/18 00:14:39;;;;;;;132.18;47.58;;;;;;;3.87;100.00;96849.81;5066635;28;20033;-75
2022/03/18 00:17:09;;;;;;;141.65;49.65;;;;;;;3.72;100.00;96847.31;5067062;28;20041;-75
2022/03/18 00:19:35;;;;;;;145.23;49.70;;;;;;;3.57;100.00;96845.66;5061195;28;20133;-75
2022/03/18 00:22:02;;;;;;;143.48;49.38;;;;;;;3.49;100.00;96853.59;5051359;28;20442;-75
2022/03/18 00:24:31;;;;;;;133.57;47.47;;;;;;;3.46;100.00;96848.78;5062701;28;20051;-75
2022/03/18 00:26:57;;;;;;;148.30;49.72;;;;;;;3.49;100.00;96847.59;5051590;28;20060;-75
2022/03/18 00:29:22;;;;;;;142.23;48.83;;;;;;;3.50;100.00;96850.00;5066807;28;20044;-75
2022/03/18 00:31:48;;;;;;;138.27;49.85;;;;;;;3.50;100.00;96847.41;5048363;28;20095;-75
2022/03/18 00:34:13;;;;;;;140.27;49.10;;;;;;;3.49;100.00;96853.59;5047408;28;20060;-75
2022/03/18 00:36:39;;;;;;;141.82;48.60;;;;;;;3.47;100.00;96846.00;5068311;28;20413;-75
2022/03/18 00:39:05;;;;;;;147.98;50.45;;;;;;;3.53;100.00;96854.03;5062510;28;20041;-75
2022/03/18 00:41:31;;;;;;;136.52;47.15;;;;;;;3.46;100.00;96848.78;5068460;28;20071;-75
2022/03/18 00:43:56;;;;;;;135.50;48.50;;;;;;;3.47;100.00;96850.41;5065352;28;20630;-75
2022/03/18 00:46:23;;;;;;;140.32;49.90;;;;;;;3.55;100.00;96850.25;5048419;28;20060;-75
2022/03/18 00:54:20;;;;;;;148.15;50.90;;;;;;;3.60;100.00;96850.47;5047968;28;20029;-75
2022/03/18 00:56:46;;;;;;;146.20;48.30;;;;;;;3.64;100.00;96850.91;5047999;28;20389;-76
2022/03/18 00:59:12;;;;;;;138.20;48.35;;;;;;;3.56;100.00;96851.88;5049603;28;20083;-76
2022/03/18 01:01:38;;;;;;;145.73;51.03;;;;;;;3.50;100.00;96860.44;5051005;28;20128;-75
2022/03/18 01:04:04;;;;;;;151.00;49.70;;;;;;;3.47;100.00;96850.41;5061143;28;20045;-75
2022/03/18 01:06:31;;;;;;;160.00;51.95;;;;;;;3.38;100.00;96846.34;5051929;28;20051;-75
2022/03/18 01:08:57;;;;;;;153.77;49.92;;;;;;;3.38;100.00;96849.75;5063863;28;20048;-76
2022/03/18 01:11:22;;;;;;;157.20;50.83;;;;;;;3.35;100.00;96854.50;5051942;28;20051;-75
2022/03/18 01:13:48;;;;;;;143.80;49.25;;;;;;;3.29;100.00;96864.69;5051103;28;20090;-75
2022/03/18 01:16:14;;;;;;;145.20;48.78;;;;;;;3.14;100.00;96861.38;5050340;28;20502;-75
2022/03/18 01:18:40;;;;;;;152.38;48.38;;;;;;;3.02;100.00;96862.91;5066509;28;20063;-75
2022/03/18 01:21:05;;;;;;;132.43;47.78;;;;;;;3.00;100.00;96865.66;5070704;28;20102;-76
2022/03/18 01:23:31;;;;;;;139.98;49.47;;;;;;;2.97;100.00;96860.06;5062811;28;20059;-75
2022/03/18 01:25:57;;;;;;;140.40;48.40;;;;;;;2.93;100.00;96857.81;5058395;28;20049;-76
2022/03/18 01:28:22;;;;;;;143.60;49.78;;;;;;;2.90;100.00;96855.59;5058834;28;20339;-76
2022/03/18 01:30:48;;;;;;;136.35;47.33;;;;;;;2.94;100.00;96856.03;5066700;28;20051;-75
2022/03/18 01:33:14;;;;;;;143.27;48.88;;;;;;;2.92;100.00;96852.81;5060906;28;20048;-75
2022/03/18 01:35:40;;;;;;;135.25;46.42;;;;;;;2.87;100.00;96855.94;5057117;28;20044;-76
2022/03/18 01:38:05;;;;;;;147.80;47.17;;;;;;;2.83;100.00;96853.91;5062824;28;20059;-76
2022/03/18 01:40:31;;;;;;;143.20;49.42;;;;;;;2.85;100.00;96862.34;5051092;28;20087;-75
2022/03/18 01:42:57;;;;;;;134.57;46.42;;;;;;;2.87;100.00;96860.34;5051142;28;20106;-75
2022/03/18 01:45:24;;;;;;;143.52;46.97;;;;;;;2.81;100.00;96864.50;5066554;28;20049;-75
2022/03/18 01:47:50;;;;;;;139.18;47.13;;;;;;;2.77;100.00;96866.69;5063811;28;20311;-75
2022/03/18 01:50:16;;;;;;;142.70;48.25;;;;;;;2.77;100.00;96860.66;5062436;28;20041;-75
2022/03/18 01:52:43;;;;;;;138.25;45.22;;;;;;;2.72;100.00;96857.84;5050682;28;20037;-76
2022/03/18 01:55:09;;;;;;;141.55;47.78;;;;;;;2.83;100.00;96862.53;5058755;28;20494;-75
2022/03/18 01:57:35;;;;;;;144.55;48.33;;;;;;;2.87;100.00;96855.94;5059833;28;20069;-76
2022/03/18 02:00:04;;;;;;;129.88;45.88;;;;;;;3.01;100.00;96856.09;5060300;28;20094;-75
2022/03/18 02:02:29;;;;;;;142.95;48.17;;;;;;;2.98;100.00;96857.25;5050532;28;20041;-75
2022/03/18 02:04:56;;;;;;;128.05;45.78;;;;;;;2.86;100.00;96864.75;5061391;28;20052;-76
2022/03/18 02:07:21;;;;;;;140.90;49.28;;;;;;;2.87;100.00;96866.34;5065200;28;20726;-75
2022/03/18 02:09:47;;;;;;;150.45;49.35;;;;;;;2.98;100.00;96872.88;5056973;28;20048;-76
2022/03/18 02:12:14;;;;;;;142.07;48.53;;;;;;;3.02;100.00;96873.31;5049646;28;20107;-76
2022/03/18 02:14:45;;;;;;;136.00;46.13;;;;;;;3.06;100.00;96874.50;5061922;28;20037;-76
2022/03/18 02:17:13;;;;;;;135.70;46.60;;;;;;;3.02;100.00;96878.50;5066966;28;20063;-76
2022/03/18 02:19:41;;;;;;;134.73;45.60;;;;;;;2.93;100.00;96881.22;5067600;28;20043;-75
2022/03/18 02:22:17;;;;;;;135.93;45.83;;;;;;;2.88;100.00;96874.97;5056945;28;20049;-75
2022/03/18 02:24:45;;;;;;;135.02;46.08;;;;;;;2.85;100.00;96878.75;5056577;28;20036;-76
2022/03/18 02:27:11;;;;;;;145.70;47.63;;;;;;;2.86;100.00;96875.16;5061336;28;20048;-76
2022/03/18 02:29:37;;;;;;;144.85;47.83;;;;;;;2.94;100.00;96869.84;5051164;28;20060;-76
2022/03/18 02:32:04;;;;;;;126.82;45.03;;;;;;;2.94;100.00;96871.63;5050259;28;20098;-76
2022/03/18 02:34:31;;;;;;;137.70;45.80;;;;;;;2.90;100.00;96876.41;5052691;28;20045;-75
2022/03/18 02:36:57;;;;;;;134.32;46.42;;;;;;;2.83;100.00;96880.75;5049550;28;20045;-76
2022/03/18 02:39:23;;;;;;;137.52;47.20;;;;;;;2.79;100.00;96879.50;5050223;28;20069;-76
2022/03/18 02:41:49;;;;;;;133.73;46.45;;;;;;;2.77;100.00;96877.09;5049678;28;20517;-76
2022/03/18 02:44:15;;;;;;;135.20;47.60;;;;;;;2.89;100.00;96869.59;5062818;28;20033;-76
2022/03/18 02:46:40;;;;;;;136.00;45.65;;;;;;;2.98;100.00;96872.06;5059221;28;20045;-76
2022/03/18 02:49:07;;;;;;;129.50;46.25;;;;;;;2.98;100.00;96878.06;5059754;28;20052;-76
2022/03/18 02:51:36;;;;;;;129.07;44.83;;;;;;;2.83;100.00;96875.53;5064581;28;20153;-76
2022/03/18 02:54:02;;;;;;;134.95;45.03;;;;;;;2.75;100.00;96868.66;5049334;28;20640;-76
2022/03/18 02:56:27;;;;;;;131.73;44.72;;;;;;;2.80;100.00;96880.28;5049202;28;20048;-74
2022/03/18 02:58:53;;;;;;;126.88;45.17;;;;;;;2.68;100.00;96887.78;5049779;28;20045;-74
2022/03/18 03:01:19;;;;;;;125.82;45.38;;;;;;;2.67;100.00;96891.38;5050222;28;20045;-74
2022/03/18 03:03:44;;;;;;;125.30;43.17;;;;;;;2.64;100.00;96876.94;5059246;28;20546;-75
2022/03/18 03:08:54;;;;;;;135.80;45.10;;;;;;;2.73;100.00;96890.63;5061384;28;20037;-74
2022/03/18 03:11:23;;;;;;;132.27;46.03;;;;;;;2.70;100.00;96888.41;5069070;28;20037;-74
2022/03/18 03:13:51;;;;;;;131.40;44.53;;;;;;;2.66;100.00;96890.56;5050761;28;20044;-75
2022/03/18 03:16:19;;;;;;;127.60;44.08;;;;;;;2.64;100.00;96887.34;5049320;28;20503;-75
2022/03/18 03:18:46;;;;;;;134.63;43.83;;;;;;;2.58;100.00;96888.88;5050492;28;20039;-76
2022/03/18 03:21:12;;;;;;;124.03;43.05;;;;;;;2.59;100.00;96885.31;5058408;28;20417;-76
2022/03/18 03:23:38;;;;;;;140.13;47.15;;;;;;;2.56;100.00;96885.69;5056480;28;20040;-75
2022/03/18 03:26:03;;;;;;;131.93;44.08;;;;;;;2.50;100.00;96896.81;5058726;28;20047;-75
2022/03/18 03:28:29;;;;;;;133.20;48.03;;;;;;;2.42;100.00;96894.31;5059090;28;20501;-75
2022/03/18 03:30:55;;;;;;;132.40;44.60;;;;;;;2.45;100.00;96899.16;5064825;28;20051;-75
2022/03/18 03:33:20;;;;;;;140.82;47.05;;;;;;;2.44;100.00;96902.72;5056867;28;20518;-75
2022/03/18 03:35:46;;;;;;;143.13;47.78;;;;;;;2.33;100.00;96905.78;5050083;28;20045;-75
2022/03/18 03:38:14;;;;;;;144.40;46.70;;;;;;;2.32;100.00;96914.59;5056316;28;20078;-75
2022/03/18 03:40:40;;;;;;;140.73;47.15;;;;;;;2.29;100.00;96914.97;5068496;28;20494;-75
2022/03/18 03:43:06;;;;;;;150.13;49.00;;;;;;;2.31;100.00;96918.16;5060809;28;20106;-75
2022/03/18 03:45:32;;;;;;;137.05;48.15;;;;;;;2.34;100.00;96912.59;5065973;28;20518;-75
2022/03/18 03:47:57;;;;;;;134.68;43.67;;;;;;;2.25;100.00;96920.50;5060278;28;20063;-75
2022/03/18 03:50:23;;;;;;;131.40;46.45;;;;;;;2.16;100.00;96916.41;5068537;28;20044;-75
2022/03/18 03:52:49;;;;;;;131.27;44.55;;;;;;;2.12;100.00;96925.53;5058780;28;20040;-75
2022/03/18 03:55:14;;;;;;;132.27;44.08;;;;;;;2.09;100.00;96925.91;5058412;28;20048;-75
2022/03/18 03:57:40;;;;;;;141.18;45.50;;;;;;;2.11;100.00;96923.13;5054576;28;20044;-75
2022/03/18 04:00:08;;;;;;;142.57;46.97;;;;;;;2.10;100.00;96927.53;5048552;28;20041;-75
2022/03/18 04:02:34;;;;;;;125.03;43.45;;;;;;;2.11;100.00;96934.31;5049803;28;20037;-75
2022/03/18 04:05:00;;;;;;;141.27;46.72;;;;;;;2.13;100.00;96937.53;5061362;28;20039;-75
2022/03/18 04:07:26;;;;;;;155.82;48.40;;;;;;;2.28;100.00;96934.13;5050759;28;20053;-75
2022/03/18 04:09:54;;;;;;;136.68;43.42;;;;;;;2.20;100.00;96933.25;5052083;28;20037;-75
2022/03/18 04:12:21;;;;;;;142.20;45.20;;;;;;;2.20;100.00;96943.63;5054031;28;20039;-75
2022/03/18 04:14:47;;;;;;;140.48;45.63;;;;;;;2.17;100.00;96946.59;5063555;28;20048;-75
2022/03/18 04:17:13;;;;;;;137.85;44.20;;;;;;;2.16;100.00;96957.94;5048467;28;20044;-75
2022/03/18 04:19:39;;;;;;;136.43;44.92;;;;;;;2.14;100.00;96953.91;5051824;28;20398;-75
2022/03/18 04:22:05;;;;;;;142.75;46.50;;;;;;;2.15;100.00;96956.34;5064400;28;20055;-75
2022/03/18 04:24:31;;;;;;;143.48;46.08;;;;;;;2.17;100.00;96959.56;5048689;28;20073;-75
2022/03/18 04:26:57;;;;;;;143.60;46.00;;;;;;;2.15;100.00;96961.53;5048819;28;20057;-75
2022/03/18 04:29:22;;;;;;;134.90;45.38;;;;;;;2.16;100.00;96963.16;5059500;28;20392;-75
2022/03/18 04:31:49;;;;;;;139.90;45.95;;;;;;;2.14;100.00;96962.53;5058645;28;20112;-75
2022/03/18 04:34:15;;;;;;;146.18;48.22;;;;;;;2.14;100.00;96962.53;5050232;28;20047;-75
2022/03/18 04:36:40;;;;;;;134.15;43.17;;;;;;;2.11;100.00;96973.25;5052125;28;20037;-75
2022/03/18 04:39:06;;;;;;;139.05;47.30;;;;;;;2.17;100.00;96975.16;5052257;28;20064;-75
2022/03/18 04:41:32;;;;;;;145.77;48.97;;;;;;;2.23;100.00;96979.63;5052216;28;20037;-75
2022/03/18 04:43:57;;;;;;;134.95;45.65;;;;;;;2.30;100.00;96978.91;5065983;28;20044;-75
2022/03/18 04:46:23;;;;;;;137.82;44.20;;;;;;;2.29;100.00;96982.50;5056762;28;20048;-75
2022/03/18 04:48:48;;;;;;;147.27;47.00;;;;;;;2.25;100.00;96988.03;5052402;28;20052;-75
2022/03/18 04:51:14;;;;;;;149.73;48.25;;;;;;;2.23;100.00;96989.22;5067290;28;20033;-75
2022/03/18 04:53:40;;;;;;;144.88;48.08;;;;;;;2.27;100.00;96980.09;5063337;28;20123;-73
2022/03/18 04:57:15;;;;;;;156.63;49.00;;;;;;;2.35;100.00;96992.16;5061837;28;20045;-74
2022/03/18 04:58:51;;;;;;;148.45;46.05;;;;;;;2.26;100.00;96999.25;5055918;28;20045;-74
2022/03/18 05:01:18;;;;;;;146.50;46.95;;;;;;;2.18;100.00;96991.53;5051708;28;20040;-74
2022/03/18 05:03:46;;;;;;;148.35;47.35;;;;;;;2.18;100.00;96992.34;5054602;28;20037;-74
2022/03/18 05:06:12;;;;;;;151.57;46.53;;;;;;;2.19;100.00;96993.94;5052760;28;20502;-74
2022/03/18 05:08:37;;;;;;;142.63;46.80;;;;;;;2.23;100.00;96999.59;5051936;28;20056;-74
2022/03/18 05:11:02;;;;;;;144.48;46.60;;;;;;;2.12;100.00;97003.44;5065876;28;20567;-74
2022/03/18 05:13:29;;;;;;;159.40;50.40;;;;;;;2.18;100.00;97002.72;5058723;28;20457;-74
2022/03/18 05:15:55;;;;;;;152.77;49.13;;;;;;;2.30;100.00;97007.47;5061284;28;20036;-74
2022/03/18 05:18:21;;;;;;;156.73;49.15;;;;;;;2.20;100.00;97000.78;5057698;28;20525;-74
2022/03/18 05:20:46;;;;;;;145.40;46.88;;;;;;;2.04;100.00;97012.13;5054524;28;20052;-73
2022/03/18 05:23:12;;;;;;;157.88;50.20;;;;;;;1.97;100.00;97015.59;5052903;28;20052;-73
2022/03/18 05:25:40;;;;;;;148.45;47.00;;;;;;;1.96;100.00;97024.41;5058985;28;20579;-72
2022/03/18 05:28:07;;;;;;;150.55;48.40;;;;;;;1.87;100.00;97011.50;5055096;28;20045;-72
2022/03/18 05:30:33;;;;;;;154.43;48.33;;;;;;;1.87;100.00;97016.69;5055247;28;20048;-73
2022/03/18 05:32:59;;;;;;;147.00;49.08;;;;;;;1.84;100.00;97017.03;5053748;28;20037;-72
2022/03/18 05:35:25;;;;;;;162.18;49.30;;;;;;;1.85;100.00;97023.84;5056735;28;20044;-72
2022/03/18 05:37:50;;;;;;;149.10;48.38;;;;;;;1.79;100.00;97023.75;5055821;28;20056;-72
2022/03/18 05:40:18;;;;;;;146.18;46.60;;;;;;;1.76;100.00;97024.88;5050661;28;20116;-73
2022/03/18 05:42:46;;;;;;;159.80;48.97;;;;;;;1.73;100.00;97030.44;5058151;28;20123;-73
2022/03/18 05:45:12;;;;;;;145.50;47.38;;;;;;;1.71;100.00;97033.22;5056084;28;20565;-73
2022/03/18 05:47:38;;;;;;;147.45;48.75;;;;;;;1.74;100.00;97026.88;5055967;28;20040;-73
2022/03/18 05:50:06;;;;;;;157.48;50.55;;;;;;;1.78;100.00;97030.72;5069362;28;20127;-73
2022/03/18 05:52:33;;;;;;;146.18;45.58;;;;;;;1.79;100.00;97034.91;5050891;28;20075;-74
2022/03/18 05:54:59;;;;;;;137.05;46.78;;;;;;;1.77;100.00;97030.88;5052415;28;20053;-72
2022/03/18 05:57:26;;;;;;;150.63;48.63;;;;;;;1.83;100.00;97036.19;5054633;28;20584;-72
2022/03/18 05:59:54;;;;;;;153.50;49.15;;;;;;;1.89;100.00;97040.66;5067064;28;20044;-72
2022/03/18 06:02:20;;;;;;;156.65;49.28;;;;;;;1.90;100.00;97041.47;5069507;28;20094;-73
2022/03/18 06:04:46;;;;;;;152.15;48.47;;;;;;;2.00;100.00;97046.44;5050865;28;20044;-73
2022/03/18 06:07:12;;;;;;;154.20;47.50;;;;;;;2.06;100.00;97056.09;5054081;28;20044;-73
2022/03/18 06:12:22;;;;;;;145.15;48.80;;;;;;;2.19;100.00;97056.28;5060178;28;20045;-73
2022/03/18 06:14:48;;;;;;;142.73;45.50;;;;;;;2.25;100.00;97055.56;5050628;28;20464;-74
2022/03/18 06:17:13;;;;;;;145.52;47.17;;;;;;;2.31;100.00;97063.66;5069430;28;20516;-72
2022/03/18 06:19:39;;;;;;;133.80;46.33;;;;;;;2.37;100.00;97062.94;5066005;28;20413;-73
2022/03/18 06:22:05;;;;;;;149.68;49.13;;;;;;;2.47;100.00;97063.50;5053595;28;20422;-74
2022/03/18 06:24:31;;;;;;;142.52;46.42;;;;;;;2.54;100.00;97059.19;5053697;28;20063;-74
2022/03/18 06:26:57;;;;;;;145.98;46.90;;;;;;;2.58;100.00;97055.22;5071980;28;20048;-76
2022/03/18 06:29:23;;;;;;;146.30;46.15;;;;;;;2.68;100.00;97060.16;5073779;28;20727;-77
2022/03/18 06:31:49;;;;;;;140.68;46.28;;;;;;;2.67;100.00;97062.94;5059624;28;20037;-73
2022/03/18 06:34:14;;;;;;;149.82;47.70;;;;;;;2.70;100.00;97066.00;5056965;28;20526;-74
2022/03/18 06:36:40;;;;;;;162.30;54.22;;;;;;;3.00;100.00;97070.31;5061539;28;20068;-71
2022/03/18 06:39:07;;;;;;;154.73;51.30;;;;;;;3.20;100.00;97073.94;5063937;28;20402;-74
2022/03/18 06:41:33;;;;;;;164.25;53.85;;;;;;;3.42;100.00;97076.56;5060981;28;20044;-73
2022/03/18 06:43:59;;;;;;;167.48;55.10;;;;;;;3.62;100.00;97077.59;5065076;28;20052;-73
2022/03/18 06:46:26;;;;;;;167.25;54.33;;;;;;;3.78;100.00;97075.72;5064364;28;20522;-72
2022/03/18 06:48:52;;;;;;;152.65;54.38;;;;;;;3.93;100.00;97086.84;5060658;28;20094;-73
2022/03/18 06:51:18;;;;;;;153.73;54.80;;;;;;;4.11;100.00;97085.63;5051181;28;20406;-73
2022/03/18 06:53:43;;;;;;;150.43;51.97;;;;;;;4.23;100.00;97094.50;5050312;28;20515;-73
2022/03/18 06:56:12;;;;;;;144.73;52.22;;;;;;;4.29;100.00;97083.31;5055915;28;20045;-74
2022/03/18 06:58:38;;;;;;;135.15;48.45;;;;;;;4.39;100.00;97090.00;5057306;28;20374;-73
2022/03/18 07:01:05;;;;;;;146.57;49.60;;;;;;;4.51;100.00;97101.50;5055756;28;20052;-73
2022/03/18 07:03:30;;;;;;;130.93;46.28;;;;;;;4.55;100.00;97100.13;5062361;28;20037;-73
2022/03/18 07:05:56;;;;;;;120.80;44.00;;;;;;;4.63;100.00;97099.97;5053593;28;20044;-73
2022/03/18 07:08:22;;;;;;;115.75;44.60;;;;;;;4.66;100.00;97104.00;5052772;28;20041;-73
2022/03/18 07:10:47;;;;;;;116.80;44.80;;;;;;;4.69;99.77;97099.19;5057626;28;20696;-73
2022/03/18 07:13:15;;;;;;;111.47;42.75;;;;;;;4.72;99.40;97107.66;5061016;28;20494;-72
2022/03/18 07:15:40;;;;;;;119.90;45.50;;;;;;;4.69;98.91;97109.63;5064044;28;20044;-73
2022/03/18 07:18:06;;;;;;;115.32;43.60;;;;;;;4.78;99.01;97112.09;5056926;28;20033;-73
2022/03/18 07:20:33;;;;;;;113.88;44.75;;;;;;;4.79;98.57;97118.94;5062070;28;20662;-73
2022/03/18 07:23:09;;;;;;;115.78;42.75;;;;;;;4.82;97.62;97113.31;5052491;28;20486;-73
2022/03/18 07:25:37;;;;;;;118.05;44.28;;;;;;;4.89;97.12;97119.38;5054443;28;20045;-73
2022/03/18 07:28:07;;;;;;;108.00;41.67;;;;;;;4.89;97.00;97113.38;5049673;28;20082;-73
2022/03/18 07:30:33;;;;;;;106.13;41.47;;;;;;;4.97;96.08;97129.66;5049665;28;20151;-74
2022/03/18 07:32:59;;;;;;;107.05;42.22;;;;;;;4.99;96.63;97125.03;5052071;28;20526;-73
2022/03/18 07:35:24;;;;;;;181.00;46.80;;;;;;;5.05;97.17;97128.69;5063395;28;20043;-73
2022/03/18 07:37:50;;;;;;;112.05;41.03;;;;;;;5.15;95.46;97128.31;5058331;28;20100;-73
2022/03/18 07:40:18;;;;;;;108.43;41.90;;;;;;;5.10;95.38;97130.69;5051995;28;20029;-73
2022/03/18 07:42:49;;;;;;;109.50;40.40;;;;;;;5.07;94.01;97128.47;5055636;28;20461;-72
2022/03/18 07:45:22;;;;;;;106.35;41.10;;;;;;;5.07;94.00;97136.31;5050627;28;20055;-72
2022/03/18 07:47:52;;;;;;;103.18;41.63;;;;;;;5.05;94.08;97139.13;5053097;28;20045;-73
2022/03/18 07:50:21;;;;;;;98.88;39.17;;;;;;;5.09;92.78;97139.56;5057026;28;20052;-73
2022/03/18 07:52:55;;;;;;;98.05;38.33;;;;;;;5.03;91.37;97141.13;5057312;28;20037;-73
2022/03/18 07:55:24;;;;;;;99.65;39.22;;;;;;;5.11;91.76;97147.97;5057355;28;20577;-73
2022/03/18 07:57:50;;;;;;;105.32;41.70;;;;;;;5.09;91.83;97147.38;5056740;28;20071;-73
2022/03/18 08:00:18;;;;;;;105.00;40.15;;;;;;;5.13;91.17;97151.19;5063020;28;20041;-73
2022/03/18 08:02:46;;;;;;;105.63;39.10;;;;;;;5.22;90.72;97165.69;5053996;28;20048;-73
2022/03/18 08:05:13;;;;;;;100.57;38.85;;;;;;;5.29;90.95;97156.09;5058789;28;20048;-73
2022/03/18 08:07:39;;;;;;;99.68;40.25;;;;;;;5.22;91.02;97165.69;5054716;28;20057;-73
2022/03/18 08:10:06;;;;;;;99.03;40.50;;;;;;;5.28;90.89;97164.13;5055786;28;20052;-73
2022/03/18 08:12:32;;;;;;;102.07;39.83;;;;;;;5.45;90.52;97164.59;5052394;28;20082;-73
2022/03/18 08:14:59;;;;;;;94.95;39.58;;;;;;;5.57;90.94;97168.22;5052975;28;20045;-73
2022/03/18 08:17:26;;;;;;;105.50;39.13;;;;;;;5.48;88.81;97174.66;5055780;28;20040;-73
2022/03/18 08:19:52;;;;;;;94.68;36.88;;;;;;;5.51;88.27;97174.25;5052758;28;20041;-73
2022/03/18 08:22:21;;;;;;;99.13;39.45;;;;;;;5.46;88.64;97176.63;5056054;28;20041;-72
2022/03/18 08:24:50;;;;;;;101.22;39.50;;;;;;;5.40;87.41;97177.41;5054565;28;20061;-73
2022/03/18 08:27:16;;;;;;;96.25;37.72;;;;;;;5.62;88.46;97180.72;5052568;28;20530;-73
2022/03/18 08:29:42;;;;;;;96.32;37.45;;;;;;;5.64;86.17;97179.50;5059532;28;20044;-73
2022/03/18 08:32:12;;;;;;;81.88;35.90;;;;;;;5.60;84.73;97188.72;5062282;28;20068;-73
2022/03/18 08:34:39;;;;;;;96.43;37.95;;;;;;;5.61;85.48;97187.72;5060431;28;20040;-70
2022/03/18 08:37:05;;;;;;;94.07;38.17;;;;;;;5.61;85.96;97192.97;5054184;28;20032;-70
2022/03/18 08:39:33;;;;;;;96.78;39.55;;;;;;;5.75;84.64;97187.75;5060517;28;20041;-76
2022/03/18 08:41:59;;;;;;;102.40;38.35;;;;;;;5.92;85.80;97191.66;5053492;28;20426;-76
2022/03/18 08:44:25;;;;;;;91.95;37.72;;;;;;;5.97;84.56;97194.50;5057112;28;20044;-76
2022/03/18 08:46:50;;;;;;;107.38;39.75;;;;;;;6.03;84.27;97204.16;5058781;28;20098;-76
2022/03/18 08:49:16;;;;;;;100.88;38.58;;;;;;;5.92;83.75;97196.88;5053773;28;20041;-76
2022/03/18 08:51:42;;;;;;;101.93;39.00;;;;;;;6.03;82.93;97198.94;5059401;28;20120;-76
2022/03/18 08:54:08;;;;;;;100.28;38.35;;;;;;;6.09;82.40;97196.53;5063651;28;20044;-76
2022/03/18 08:56:34;;;;;;;96.38;36.65;;;;;;;6.26;82.19;97192.50;5063767;28;20490;-75
2022/03/18 08:59:03;;;;;;;96.80;39.15;;;;;;;6.17;83.01;97198.94;5057926;28;20032;-76
2022/03/18 09:01:29;;;;;;;87.95;36.95;;;;;;;6.30;81.85;97206.81;5065057;28;20037;-75
2022/03/18 09:03:55;;;;;;;97.10;38.08;;;;;;;6.28;82.47;97203.59;5051384;28;20033;-75
2022/03/18 09:06:21;;;;;;;98.00;37.55;;;;;;;6.32;81.55;97196.97;5053429;28;20041;-76
2022/03/18 09:08:46;;;;;;;89.90;37.88;;;;;;;6.46;81.36;97212.66;5053064;28;20077;-75
2022/03/18 09:11:12;;;;;;;97.10;38.00;;;;;;;6.53;81.24;97213.47;5058919;28;20717;-75
2022/03/18 09:13:38;;;;;;;91.60;38.55;;;;;;;6.53;81.44;97209.03;5059998;28;20037;-74
2022/03/18 09:16:05;;;;;;;97.80;38.10;;;;;;;6.48;80.66;97206.22;5061822;28;20044;-74
2022/03/18 09:18:33;;;;;;;94.80;36.45;;;;;;;6.59;79.77;97213.47;5059444;28;20064;-75
2022/03/18 09:20:59;;;;;;;92.80;37.33;;;;;;;6.61;78.61;97221.13;5060972;28;20075;-73
2022/03/18 09:23:25;;;;;;;89.40;37.58;;;;;;;6.75;78.41;97217.47;5060437;28;20041;-74
2022/03/18 09:25:51;;;;;;;96.72;37.15;;;;;;;6.70;77.47;97230.34;5068667;28;20056;-74
2022/03/18 09:28:17;;;;;;;86.32;36.80;;;;;;;6.73;75.98;97227.31;5059785;28;20051;-73
2022/03/18 09:30:43;;;;;;;92.95;36.00;;;;;;;6.64;75.34;97230.34;5062270;28;20048;-73
2022/03/18 09:33:09;;;;;;;91.70;35.40;;;;;;;6.76;74.65;97234.78;5063291;28;20182;-72
2022/03/18 09:35:36;;;;;;;92.18;36.20;;;;;;;6.92;74.44;97233.56;5061228;28;20045;-73
2022/03/18 09:38:02;;;;;;;92.80;36.75;;;;;;;7.00;75.21;97239.59;5065064;28;20074;-73
2022/03/18 09:40:28;;;;;;;87.35;36.83;;;;;;;7.05;73.48;97242.41;5050743;28;20107;-73
2022/03/18 09:43:05;;;;;;;90.45;34.42;;;;;;;7.30;71.74;97242.56;5058468;28;20040;-73
2022/03/18 09:45:34;;;;;;;83.93;34.75;;;;;;;7.37;72.04;97240.72;5051417;28;20041;-75
2022/03/18 09:48:01;;;;;;;75.15;31.90;;;;;;;7.57;71.86;97240.66;5062711;28;20060;-74
2022/03/18 09:50:28;;;;;;;74.88;32.35;;;;;;;7.72;70.23;97242.22;5060330;28;20041;-78
2022/03/18 09:52:54;;;;;;;74.38;32.22;;;;;;;7.61;68.77;97244.50;5065776;28;20037;-76
2022/03/18 09:55:20;;;;;;;76.32;33.20;;;;;;;7.88;68.45;97240.94;5055093;28;20106;-78
2022/03/18 09:57:46;;;;;;;78.93;32.33;;;;;;;7.93;67.19;97243.72;5064159;28;20499;-77
2022/03/18 10:00:12;;;;;;;77.40;33.33;;;;;;;7.94;68.14;97242.72;5050031;28;20204;-74
2022/03/18 10:02:38;;;;;;;71.05;30.30;;;;;;;8.13;65.99;97249.69;5050707;28;20045;-73
2022/03/18 10:05:14;;;;;;;74.57;31.13;;;;;;;8.12;64.99;97242.81;5061350;28;20447;-74
2022/03/18 10:07:51;;;;;;;77.05;33.60;;;;;;;8.15;65.75;97252.88;5059254;28;20122;-78
2022/03/18 10:10:17;;;;;;;70.05;30.83;;;;;;;8.10;65.10;97247.50;5068605;28;20121;-74
2022/03/18 10:12:45;;;;;;;70.18;30.02;;;;;;;8.36;64.72;97253.59;5057808;28;20658;-73
2022/03/18 10:15:14;;;;;;;68.63;30.95;;;;;;;8.88;62.02;97250.81;5066808;28;20047;-73
2022/03/18 10:17:49;;;;;;;66.63;30.00;;;;;;;8.80;62.26;97253.69;5057480;28;20040;-73
2022/03/18 10:20:31;;;;;;;71.43;31.10;;;;;;;8.54;63.00;97259.97;5054794;28;20040;-74
2022/03/18 10:23:16;;;;;;;77.68;32.55;;;;;;;8.18;63.37;97256.13;5057623;28;20457;-74
2022/03/18 10:25:53;;;;;;;;;;;;;;;8.53;62.03;97263.59;5060958;28;20037;-74
2022/03/18 10:28:44;;;;;;;72.93;29.90;;;;;;;9.12;59.86;97262.31;5052531;28;19924;-74
2022/03/18 10:31:16;;;;;;;75.05;30.55;;;;;;;9.00;60.67;97256.16;5060857;28;20040;-75
2022/03/18 10:39:33;;;;;;;70.20;30.20;;;;;;;10.86;54.85;97244.31;5050470;28;20057;-75
2022/03/18 10:42:01;;;;;;;63.10;28.48;;;;;;;10.52;52.53;97246.66;5054030;28;20068;-75
2022/03/18 10:44:46;;;;;;;60.85;27.95;;;;;;;10.85;53.79;97247.97;5062535;28;20050;-75
2022/03/18 10:47:27;;;;;;;61.17;27.95;;;;;;;11.16;50.74;97253.94;5058877;28;20049;-74
2022/03/18 10:50:11;;;;;;;65.88;27.80;;;;;;;11.77;49.36;97250.97;5050702;28;20472;-73
2022/03/18 10:52:38;;;;;;;55.10;25.40;;;;;;;11.32;49.83;97251.63;5055031;28;20051;-73
2022/03/18 10:55:22;;;;;;;58.03;26.80;;;;;;;11.65;47.79;97244.94;5058257;28;20037;-74
2022/03/18 10:57:52;;;;;;;57.10;25.90;;;;;;;11.95;47.58;97256.13;5056089;28;20052;-73
2022/03/18 11:00:19;;;;;;;51.60;24.33;;;;;;;12.68;45.47;97252.09;5053302;28;20406;-74
2022/03/18 11:02:48;;;;;;;57.50;25.90;;;;;;;11.99;44.64;97258.28;5061340;28;20086;-73
2022/03/18 11:05:14;;;;;;;51.65;24.40;;;;;;;11.62;44.00;97256.72;5052621;28;20054;-73
2022/03/18 11:07:44;;;;;;;58.85;25.45;;;;;;;11.96;43.93;97260.34;5061654;28;20449;-73
2022/03/18 11:12:56;;;;;;;61.90;27.30;;;;;;;11.61;47.17;97261.22;5049078;28;20541;-73
2022/03/18 11:15:26;;;;;;;55.83;27.90;;;;;;;11.95;45.12;97255.31;5049718;28;20049;-72
2022/03/18 11:17:55;;;;;;;56.25;27.65;;;;;;;12.78;44.00;97268.09;5064693;28;20110;-73
2022/03/18 11:20:23;;;;;;;50.95;26.13;;;;;;;11.12;48.68;97273.88;5058255;28;20513;-73
2022/03/18 11:22:49;;;;;;;60.70;28.50;;;;;;;11.29;47.89;97265.28;5052763;28;20037;-73
2022/03/18 11:25:16;;;;;;;52.30;26.98;;;;;;;11.36;48.22;97265.94;5056528;28;20045;-74
2022/03/18 11:27:44;;;;;;;51.92;26.88;;;;;;;10.66;48.89;97264.88;5054916;28;20040;-74
2022/03/18 11:30:20;;;;;;;52.97;27.20;;;;;;;11.26;50.90;97269.97;5051047;28;20662;-75
2022/03/18 11:33:10;;;;;;;55.72;26.92;;;;;;;12.18;48.09;97264.97;5054594;28;20041;-74
2022/03/18 11:35:54;;;;;;;48.22;26.33;;;;;;;12.19;46.02;97261.28;5060139;28;20041;-74